createdAt,value
2023-05-18T00:01:34.227Z,43.38
2023-05-18T00:04:02.334Z,43.62
2023-05-18T00:06:29.669Z,43.85
2023-05-18T00:08:56.907Z,43.60
2023-05-18T00:11:24.208Z,43.73
2023-05-18T00:13:51.439Z,43.57
2023-05-18T00:16:18.640Z,44.04
2023-05-18T00:18:46.416Z,44.07
2023-05-18T00:21:16.364Z,44.16
2023-05-18T00:23:49.696Z,44.34
2023-05-18T00:26:17.151Z,44.09
2023-05-18T00:28:46.096Z,44.24
2023-05-18T00:31:13.324Z,44.46
2023-05-18T00:33:41.358Z,44.33
2023-05-18T00:36:08.556Z,44.69
2023-05-18T00:38:35.714Z,44.58
2023-05-18T00:41:03.074Z,44.96
2023-05-18T00:43:30.230Z,44.84
2023-05-18T00:45:57.406Z,45.00
2023-05-18T00:48:24.584Z,44.95
2023-05-18T00:50:51.792Z,44.95
2023-05-18T00:53:18.951Z,45.08
2023-05-18T00:55:46.030Z,45.08
2023-05-18T00:58:14.341Z,45.23
2023-05-18T01:00:41.652Z,45.47
2023-05-18T01:03:11.375Z,45.77
2023-05-18T01:05:38.606Z,45.82
2023-05-18T01:08:05.820Z,45.56
2023-05-18T01:10:37.034Z,45.75
2023-05-18T01:13:15.813Z,46.32
2023-05-18T01:15:44.803Z,45.76
2023-05-18T01:18:22.047Z,46.45
2023-05-18T01:20:57.696Z,46.32
2023-05-18T01:23:52.578Z,46.32
2023-05-18T01:26:31.948Z,45.95
2023-05-18T01:29:07.221Z,46.13
2023-05-18T01:31:34.948Z,45.87
2023-05-18T01:34:03.277Z,45.93
2023-05-18T01:36:31.765Z,45.84
2023-05-18T01:39:01.991Z,45.95
2023-05-18T01:41:31.628Z,45.87
2023-05-18T01:44:04.789Z,46.05
2023-05-18T01:46:57.605Z,46.58
2023-05-18T01:49:31.991Z,46.19
2023-05-18T01:52:02.633Z,45.49
2023-05-18T01:54:32.396Z,45.66
2023-05-18T01:57:01.176Z,45.66
2023-05-18T01:59:29.081Z,45.43
2023-05-18T02:02:00.432Z,45.77
2023-05-18T02:04:28.425Z,45.60
2023-05-18T02:06:56.235Z,45.57
2023-05-18T02:09:23.893Z,45.76
2023-05-18T02:11:51.817Z,45.81
2023-05-18T02:14:19.020Z,45.45
2023-05-18T02:16:47.626Z,45.63
2023-05-18T02:19:15.333Z,45.92
2023-05-18T02:21:43.752Z,45.70
2023-05-18T02:24:12.679Z,45.58
2023-05-18T02:26:41.771Z,45.49
2023-05-18T02:29:11.939Z,45.43
2023-05-18T02:31:39.343Z,45.49
2023-05-18T02:34:07.141Z,45.53
2023-05-18T02:36:40.576Z,45.64
2023-05-18T02:39:08.022Z,44.90
2023-05-18T02:41:36.521Z,45.25
2023-05-18T02:44:05.806Z,45.02
2023-05-18T02:46:33.338Z,44.99
2023-05-18T02:49:00.818Z,45.23
2023-05-18T02:51:30.492Z,45.31
2023-05-18T02:53:58.204Z,45.24
2023-05-18T02:56:25.939Z,45.11
2023-05-18T02:59:10.049Z,45.28
2023-05-18T03:01:41.324Z,45.27
2023-05-18T03:04:09.126Z,45.17
2023-05-18T03:06:40.569Z,44.81
2023-05-18T03:09:08.686Z,45.15
2023-05-18T03:11:40.911Z,44.77
2023-05-18T03:14:09.266Z,44.74
2023-05-18T03:16:39.074Z,44.89
2023-05-18T03:19:11.116Z,44.53
2023-05-18T03:21:41.747Z,44.66
2023-05-18T03:24:09.685Z,44.82
2023-05-18T03:26:42.002Z,44.53
2023-05-18T03:29:09.470Z,44.58
2023-05-18T03:31:36.557Z,44.71
2023-05-18T03:34:03.902Z,44.40
2023-05-18T03:36:31.053Z,44.11
2023-05-18T03:38:58.344Z,44.34
2023-05-18T03:41:26.767Z,44.07
2023-05-18T03:43:54.959Z,44.18
2023-05-18T03:46:23.179Z,44.36
2023-05-18T03:48:50.974Z,44.30
2023-05-18T03:51:21.945Z,44.04
2023-05-18T03:53:49.103Z,44.22
2023-05-18T03:56:16.224Z,43.98
2023-05-18T03:58:44.557Z,43.84
2023-05-18T04:01:11.959Z,43.80
2023-05-18T04:03:40.909Z,43.75
2023-05-18T04:06:10.408Z,43.57
2023-05-18T04:08:38.347Z,43.63
2023-05-18T04:11:07.031Z,43.25
2023-05-18T04:13:35.245Z,43.23
2023-05-18T04:16:03.800Z,43.10
2023-05-18T04:18:32.393Z,43.20
2023-05-18T04:21:00.527Z,42.98
2023-05-18T04:23:28.887Z,43.05
2023-05-18T04:25:56.719Z,42.71
2023-05-18T04:28:24.104Z,42.72
2023-05-18T04:30:52.020Z,42.35
2023-05-18T04:33:20.697Z,42.25
2023-05-18T04:35:48.551Z,42.05
2023-05-18T04:38:16.843Z,41.96
2023-05-18T04:40:44.834Z,41.75
2023-05-18T04:43:13.624Z,41.64
2023-05-18T04:45:40.744Z,41.41
2023-05-18T04:48:08.268Z,41.38
2023-05-18T04:50:37.350Z,41.20
2023-05-18T04:53:07.788Z,41.11
2023-05-18T04:55:35.699Z,40.56
2023-05-18T04:58:10.611Z,40.51
2023-05-18T05:00:38.676Z,40.43
2023-05-18T05:03:06.476Z,40.21
2023-05-18T05:05:34.819Z,40.10
2023-05-18T05:08:04.850Z,40.06
2023-05-18T05:10:31.916Z,39.81
2023-05-18T05:12:59.872Z,39.73
2023-05-18T05:15:27.381Z,39.60
2023-05-18T05:17:54.836Z,39.44
2023-05-18T05:20:22.700Z,39.22
2023-05-18T05:22:49.847Z,39.07
2023-05-18T05:25:22.513Z,39.02
2023-05-18T05:27:51.140Z,38.91
2023-05-18T05:30:20.860Z,38.66
2023-05-18T05:32:48.158Z,38.49
2023-05-18T05:35:15.570Z,38.44
2023-05-18T05:37:42.979Z,38.06
2023-05-18T05:40:10.926Z,37.94
2023-05-18T05:42:42.666Z,37.96
2023-05-18T05:45:10.332Z,37.76
2023-05-18T05:48:03.401Z,37.73
2023-05-18T05:50:32.514Z,37.52
2023-05-18T05:53:01.859Z,37.31
2023-05-18T05:55:33.131Z,37.15
2023-05-18T05:58:00.638Z,36.88
2023-05-18T06:00:28.912Z,37.00
2023-05-18T06:03:02.093Z,36.92
2023-05-18T06:05:42.455Z,36.42
2023-05-18T06:08:12.385Z,36.38
2023-05-18T06:10:41.384Z,36.20
2023-05-18T06:13:09.265Z,36.34
2023-05-18T06:15:43.934Z,36.14
2023-05-18T06:18:13.445Z,35.87
2023-05-18T06:20:41.005Z,35.80
2023-05-18T06:23:08.089Z,35.60
2023-05-18T06:25:53.439Z,35.40
2023-05-18T06:28:44.044Z,35.53
2023-05-18T06:31:33.609Z,35.38
2023-05-18T06:34:12.694Z,35.29
2023-05-18T06:36:40.816Z,35.38
2023-05-18T06:39:07.909Z,35.14
2023-05-18T06:41:35.388Z,35.16
2023-05-18T06:44:03.214Z,35.10
2023-05-18T06:46:35.869Z,35.02
2023-05-18T06:49:08.569Z,35.01
2023-05-18T06:51:35.595Z,34.97
2023-05-18T06:54:02.756Z,34.69
2023-05-18T06:56:30.021Z,34.74
2023-05-18T06:58:58.330Z,34.65
2023-05-18T07:01:27.458Z,34.50
2023-05-18T07:06:43.054Z,34.17
2023-05-18T07:09:10.184Z,33.96
2023-05-18T07:15:36.779Z,33.53
2023-05-18T07:18:04.399Z,33.52
2023-05-18T07:20:31.611Z,33.20
2023-05-18T07:22:58.847Z,33.20
2023-05-18T07:25:26.360Z,33.29
2023-05-18T07:27:54.850Z,33.22
2023-05-18T07:30:22.856Z,33.23
2023-05-18T07:32:53.867Z,32.79
2023-05-18T07:35:22.132Z,32.82
2023-05-18T07:37:50.409Z,32.44
2023-05-18T07:40:17.625Z,32.24
2023-05-18T07:42:44.910Z,32.10
2023-05-18T07:45:12.913Z,32.18
2023-05-18T07:47:40.356Z,32.23
2023-05-18T07:50:08.222Z,32.10
2023-05-18T07:52:35.369Z,32.05
2023-05-18T07:55:02.993Z,31.66
2023-05-18T07:57:31.709Z,31.33
2023-05-18T07:59:58.746Z,30.95
2023-05-18T08:02:26.115Z,30.69
2023-05-18T08:04:56.805Z,30.54
2023-05-18T08:07:26.626Z,30.47
2023-05-18T08:09:53.680Z,30.32
2023-05-18T08:12:21.128Z,30.09
2023-05-18T08:14:50.624Z,29.70
2023-05-18T08:17:19.781Z,29.39
2023-05-18T08:19:47.976Z,29.29
2023-05-18T08:22:15.856Z,29.19
2023-05-18T08:24:43.177Z,29.12
2023-05-18T08:27:11.470Z,29.04
2023-05-18T08:29:38.733Z,29.08
2023-05-18T08:32:07.569Z,28.66
2023-05-18T08:34:35.273Z,28.57
2023-05-18T08:37:02.870Z,28.25
2023-05-18T08:39:32.187Z,28.22
2023-05-18T08:42:16.859Z,28.36
2023-05-18T08:44:46.660Z,28.38
2023-05-18T08:47:15.457Z,28.27
2023-05-18T08:49:42.977Z,28.23
2023-05-18T08:52:18.148Z,28.18
2023-05-18T08:54:47.278Z,28.00
2023-05-18T08:57:16.905Z,28.28
2023-05-18T08:59:45.149Z,27.97
2023-05-18T09:02:13.739Z,27.75
2023-05-18T09:04:42.686Z,27.41
2023-05-18T09:07:11.144Z,26.92
2023-05-18T09:09:40.880Z,27.03
2023-05-18T09:12:09.865Z,26.76
2023-05-18T09:14:37.122Z,26.73
2023-05-18T09:17:04.496Z,26.69
2023-05-18T09:19:31.659Z,26.31
2023-05-18T09:21:58.711Z,26.07
2023-05-18T09:24:26.703Z,26.04
2023-05-18T09:26:54.347Z,25.73
2023-05-18T09:29:22.676Z,25.86
2023-05-18T09:31:50.308Z,25.64
2023-05-18T09:34:19.526Z,25.67
2023-05-18T09:36:53.123Z,25.69
2023-05-18T09:39:20.278Z,25.93
2023-05-18T09:42:05.167Z,25.37
2023-05-18T09:44:35.813Z,25.96
2023-05-18T09:47:12.219Z,25.69
2023-05-18T09:49:41.664Z,25.93
2023-05-18T09:52:09.466Z,25.63
2023-05-18T09:54:40.133Z,25.63
2023-05-18T09:57:10.712Z,25.75
2023-05-18T09:59:39.061Z,25.44
2023-05-18T10:02:08.588Z,25.75
2023-05-18T10:04:41.384Z,25.96
2023-05-18T10:07:16.886Z,26.10
2023-05-18T10:09:45.973Z,25.97
2023-05-18T10:12:15.050Z,26.06
2023-05-18T10:14:43.987Z,26.25
2023-05-18T10:17:15.699Z,26.23
2023-05-18T10:19:44.810Z,26.45
2023-05-18T10:22:15.875Z,26.50
2023-05-18T10:24:47.091Z,26.48
2023-05-18T10:27:14.932Z,26.01
2023-05-18T10:29:43.026Z,25.92
2023-05-18T10:32:12.980Z,25.34
2023-05-18T10:34:43.010Z,25.24
2023-05-18T10:37:12.125Z,25.07
2023-05-18T10:39:45.825Z,24.83
2023-05-18T10:42:16.289Z,24.52
2023-05-18T10:44:44.972Z,24.33
2023-05-18T10:47:13.909Z,24.56
2023-05-18T10:49:43.422Z,24.61
2023-05-18T10:52:12.934Z,25.12
2023-05-18T10:54:41.991Z,25.35
2023-05-18T10:57:13.879Z,24.91
2023-05-18T10:59:48.227Z,25.11
2023-05-18T11:02:21.259Z,25.06
2023-05-18T11:04:50.162Z,24.69
2023-05-18T11:07:18.239Z,24.99
2023-05-18T11:09:45.164Z,24.67
2023-05-18T11:12:20.421Z,24.37
2023-05-18T11:14:50.485Z,24.46
2023-05-18T11:17:29.728Z,24.44
2023-05-18T11:20:06.471Z,24.42
2023-05-18T11:22:45.076Z,24.39
2023-05-18T11:25:27.356Z,24.28
2023-05-18T11:27:57.851Z,24.44
2023-05-18T11:30:40.745Z,24.24
2023-05-18T11:33:26.252Z,24.44
2023-05-18T11:36:27.111Z,24.15
2023-05-18T11:39:04.788Z,23.77
2023-05-18T11:41:35.816Z,23.43
2023-05-18T11:44:12.028Z,22.73
2023-05-18T11:46:53.684Z,22.83
2023-05-18T11:49:23.744Z,22.74
2023-05-18T11:52:13.498Z,21.78
2023-05-18T11:54:52.378Z,21.07
2023-05-18T11:57:43.042Z,21.17
2023-05-18T12:00:12.202Z,21.60
2023-05-18T12:02:43.963Z,21.82
2023-05-18T12:05:11.757Z,22.60
2023-05-18T12:07:42.765Z,22.85
2023-05-18T12:10:16.324Z,23.00
2023-05-18T12:12:44.048Z,23.28
2023-05-18T12:15:16.586Z,23.58
2023-05-18T12:17:46.923Z,23.90
2023-05-18T12:20:15.140Z,23.98
2023-05-18T12:22:44.420Z,23.85
2023-05-18T12:25:12.066Z,23.82
2023-05-18T12:27:48.803Z,23.22
2023-05-18T12:30:15.874Z,22.00
2023-05-18T12:32:47.701Z,20.50
2023-05-18T12:35:15.186Z,20.01
2023-05-18T12:37:45.169Z,19.04
2023-05-18T12:40:17.055Z,18.32
2023-05-18T12:43:01.250Z,16.90
2023-05-18T12:45:32.986Z,16.97
2023-05-18T12:48:11.555Z,16.58
2023-05-18T12:50:47.396Z,16.21
2023-05-18T12:53:14.715Z,16.33
2023-05-18T12:55:41.704Z,15.88
2023-05-18T12:58:18.501Z,15.76
2023-05-18T13:00:50.071Z,16.35
2023-05-18T13:03:20.361Z,16.35
2023-05-18T13:06:07.271Z,15.81
2023-05-18T13:08:35.321Z,16.51
2023-05-18T13:13:38.928Z,15.71
2023-05-18T13:16:15.676Z,16.68
2023-05-18T13:18:46.999Z,17.37
2023-05-18T13:21:14.038Z,17.93
2023-05-18T13:23:40.903Z,18.12
2023-05-18T13:26:08.005Z,18.03
2023-05-18T13:28:35.961Z,17.81
2023-05-18T13:31:03.098Z,18.01
2023-05-18T13:33:30.055Z,18.25
2023-05-18T13:35:57.202Z,18.42
2023-05-18T13:38:24.244Z,18.70
2023-05-18T13:40:51.355Z,18.88
2023-05-18T13:43:18.302Z,19.44
2023-05-18T13:45:45.400Z,20.05
2023-05-18T13:48:12.707Z,20.57
2023-05-18T13:50:40.078Z,20.79
2023-05-18T13:53:07.274Z,21.32
2023-05-18T13:55:38.073Z,21.77
2023-05-18T13:58:05.491Z,22.13
2023-05-18T14:00:36.546Z,22.42
2023-05-18T14:03:04.334Z,22.59
2023-05-18T14:05:31.407Z,22.66
2023-05-18T14:07:58.630Z,22.75
2023-05-18T14:10:27.030Z,22.99
2023-05-18T14:12:56.754Z,23.24
2023-05-18T14:15:23.968Z,23.46
2023-05-18T14:17:51.265Z,23.47
2023-05-18T14:20:19.825Z,22.78
2023-05-18T14:22:49.628Z,22.58
2023-05-18T14:25:17.192Z,22.11
2023-05-18T14:27:44.493Z,21.56
2023-05-18T14:30:11.884Z,21.45
2023-05-18T14:32:38.942Z,20.94
2023-05-18T14:35:06.634Z,20.88
2023-05-18T14:37:33.646Z,20.99
2023-05-18T14:40:00.693Z,21.32
2023-05-18T14:42:27.713Z,21.35
2023-05-18T14:44:55.172Z,21.35
2023-05-18T14:47:22.677Z,21.64
2023-05-18T14:49:49.832Z,21.59
2023-05-18T14:52:16.981Z,21.42
2023-05-18T14:54:43.999Z,21.73
2023-05-18T14:57:11.431Z,21.73
2023-05-18T14:59:38.698Z,22.00
2023-05-18T15:02:07.715Z,22.39
2023-05-18T15:04:36.192Z,22.95
2023-05-18T15:07:03.400Z,23.03
2023-05-18T15:09:30.413Z,22.96
2023-05-18T15:11:57.471Z,23.45
2023-05-18T15:14:24.522Z,23.96
2023-05-18T15:16:51.868Z,24.34
2023-05-18T15:19:19.420Z,24.45
2023-05-18T15:21:46.507Z,25.03
2023-05-18T15:24:13.583Z,25.39
2023-05-18T15:26:40.980Z,25.58
2023-05-18T15:29:08.057Z,25.35
2023-05-18T15:31:37.901Z,25.50
2023-05-18T15:34:04.955Z,25.84
2023-05-18T15:36:32.426Z,26.29
2023-05-18T15:38:59.606Z,26.42
2023-05-18T15:41:33.029Z,26.71
2023-05-18T15:44:01.911Z,26.74
2023-05-18T15:46:32.186Z,26.90
2023-05-18T15:48:59.289Z,27.13
2023-05-18T15:51:26.401Z,27.41
2023-05-18T15:53:53.789Z,27.56
2023-05-18T15:56:22.049Z,27.99
2023-05-18T15:58:49.141Z,28.07
2023-05-18T16:01:16.179Z,28.72
2023-05-18T16:03:46.231Z,29.81
2023-05-18T16:06:13.461Z,30.56
2023-05-18T16:08:40.503Z,31.04
2023-05-18T16:11:10.069Z,31.63
2023-05-18T16:13:37.017Z,32.03
2023-05-18T16:16:04.208Z,32.60
2023-05-18T16:18:31.551Z,33.37
2023-05-18T16:20:58.947Z,33.69
2023-05-18T16:23:25.981Z,34.09
2023-05-18T16:25:53.009Z,34.59
2023-05-18T16:28:20.114Z,34.78
2023-05-18T16:30:47.129Z,35.34
2023-05-18T16:33:14.209Z,36.38
2023-05-18T16:35:41.460Z,36.93
2023-05-18T16:38:13.460Z,37.71
2023-05-18T16:40:40.482Z,38.42
2023-05-18T16:43:07.739Z,39.29
2023-05-18T16:45:37.456Z,39.82
2023-05-18T16:48:04.633Z,39.84
2023-05-18T16:50:31.992Z,40.08
2023-05-18T16:53:02.517Z,40.85
2023-05-18T16:55:29.431Z,40.69
2023-05-18T16:57:56.422Z,41.05
2023-05-18T17:00:23.709Z,41.32
2023-05-18T17:02:54.006Z,41.73
2023-05-18T17:05:24.787Z,42.09
2023-05-18T17:07:55.544Z,42.51
2023-05-18T17:10:25.439Z,42.75
2023-05-18T17:12:52.504Z,43.53
2023-05-18T17:15:19.645Z,43.61
2023-05-18T17:17:55.127Z,43.90
2023-05-18T17:20:23.092Z,44.21
2023-05-18T17:22:50.293Z,44.17
2023-05-18T17:25:17.418Z,44.83
2023-05-18T17:27:44.395Z,45.02
2023-05-18T17:30:11.884Z,45.47
2023-05-18T17:32:39.777Z,45.76
2023-05-18T17:35:13.302Z,46.14
2023-05-18T17:37:41.479Z,46.41
2023-05-18T17:40:09.997Z,46.76
2023-05-18T17:42:37.020Z,47.06
2023-05-18T17:45:04.377Z,47.49
2023-05-18T17:47:31.343Z,47.78
2023-05-18T17:49:58.322Z,48.10
2023-05-18T17:52:25.360Z,48.28
2023-05-18T17:54:57.290Z,48.54
2023-05-18T17:57:24.384Z,48.93
2023-05-18T17:59:51.573Z,49.06
2023-05-18T18:02:18.648Z,49.49
2023-05-18T18:04:45.927Z,49.54
2023-05-18T18:07:13.039Z,49.72
2023-05-18T18:09:41.092Z,50.38
2023-05-18T18:12:08.720Z,50.83
2023-05-18T18:14:35.846Z,50.94
2023-05-18T18:17:03.578Z,50.90
2023-05-18T18:19:31.419Z,51.09
2023-05-18T18:21:58.812Z,51.24
2023-05-18T18:24:25.953Z,51.66
2023-05-18T18:26:53.284Z,51.90
2023-05-18T18:29:20.445Z,51.96
2023-05-18T18:31:47.906Z,52.21
2023-05-18T18:34:15.252Z,52.44
2023-05-18T18:36:44.500Z,52.79
2023-05-18T18:39:11.620Z,53.06
2023-05-18T18:41:38.724Z,52.93
2023-05-18T18:44:05.928Z,53.33
2023-05-18T18:46:33.469Z,53.36
2023-05-18T18:49:00.883Z,53.61
2023-05-18T18:51:28.131Z,53.46
2023-05-18T18:53:55.201Z,53.87
2023-05-18T18:56:24.261Z,53.78
2023-05-18T18:58:51.534Z,54.07
2023-05-18T19:01:18.863Z,54.02
2023-05-18T19:03:46.127Z,53.88
2023-05-18T19:06:17.585Z,54.26
2023-05-18T19:08:44.783Z,54.22
2023-05-18T19:11:12.006Z,54.13
2023-05-18T19:13:39.030Z,54.24
2023-05-18T19:16:06.613Z,54.27
2023-05-18T19:18:33.910Z,54.47
2023-05-18T19:21:01.620Z,54.26
2023-05-18T19:23:29.098Z,54.69
2023-05-18T19:25:56.474Z,54.81
2023-05-18T19:28:23.695Z,55.15
2023-05-18T19:30:50.778Z,54.95
2023-05-18T19:33:18.219Z,55.47
2023-05-18T19:35:45.862Z,55.47
2023-05-18T19:38:13.088Z,55.13
2023-05-18T19:40:40.132Z,55.69
2023-05-18T19:43:07.508Z,55.65
2023-05-18T19:45:35.036Z,55.54
2023-05-18T19:48:02.557Z,55.75
2023-05-18T19:50:30.053Z,56.02
2023-05-18T19:52:57.125Z,55.89
2023-05-18T19:55:24.466Z,56.22
2023-05-18T19:57:51.468Z,56.46
2023-05-18T20:00:18.641Z,56.79
2023-05-18T20:02:45.778Z,56.53
2023-05-18T20:05:13.162Z,56.87
2023-05-18T20:07:41.142Z,57.13
2023-05-18T20:10:08.472Z,57.03
2023-05-18T20:12:35.915Z,57.02
2023-05-18T20:15:03.713Z,57.29
2023-05-18T20:17:41.239Z,57.39
2023-05-18T20:20:08.946Z,57.41
2023-05-18T20:22:36.174Z,57.50
2023-05-18T20:25:05.627Z,58.12
2023-05-18T20:27:33.208Z,57.73
2023-05-18T20:30:00.840Z,58.12
2023-05-18T20:32:29.083Z,58.32
2023-05-18T20:34:56.349Z,58.35
2023-05-18T20:37:25.378Z,58.62
2023-05-18T20:39:54.383Z,58.64
2023-05-18T20:42:22.432Z,58.75
2023-05-18T20:44:53.077Z,59.57
2023-05-18T20:47:20.942Z,59.01
2023-05-18T20:49:48.763Z,59.63
2023-05-18T20:52:16.784Z,59.32
2023-05-18T20:54:44.277Z,59.78
2023-05-18T20:57:12.034Z,59.63
2023-05-18T20:59:39.196Z,59.75
2023-05-18T21:02:07.156Z,59.84
2023-05-18T21:04:34.557Z,60.25
2023-05-18T21:07:01.833Z,60.51
2023-05-18T21:09:31.402Z,60.58
2023-05-18T21:11:58.824Z,60.89
2023-05-18T21:14:26.161Z,60.89
2023-05-18T21:16:53.469Z,61.05
2023-05-18T21:19:20.991Z,61.55
2023-05-18T21:21:48.375Z,61.37
2023-05-18T21:24:15.682Z,61.89
2023-05-18T21:26:43.070Z,62.03
2023-05-18T21:29:10.086Z,61.80
2023-05-18T21:31:37.411Z,62.63
2023-05-18T21:34:04.508Z,62.78
2023-05-18T21:36:34.420Z,62.82
2023-05-18T21:39:05.980Z,63.33
2023-05-18T21:41:35.371Z,63.01
2023-05-18T21:44:03.431Z,63.38
2023-05-18T21:46:30.771Z,63.33
2023-05-18T21:48:58.066Z,63.29
2023-05-18T21:51:25.598Z,63.33
2023-05-18T21:53:52.802Z,63.32
2023-05-18T21:56:20.199Z,63.73
2023-05-18T21:58:47.340Z,63.56
2023-05-18T22:01:19.703Z,63.67
2023-05-18T22:03:48.138Z,64.13
2023-05-18T22:06:15.788Z,64.13
2023-05-18T22:08:43.224Z,63.90
2023-05-18T22:11:11.899Z,63.96
2023-05-18T22:13:39.433Z,64.21
2023-05-18T22:16:06.733Z,64.18
2023-05-18T22:18:33.912Z,64.18
2023-05-18T22:21:01.202Z,64.29
2023-05-18T22:23:28.244Z,64.32
2023-05-18T22:25:55.272Z,64.13
2023-05-18T22:28:22.538Z,64.39
2023-05-18T22:30:52.971Z,63.78
2023-05-18T22:33:21.427Z,64.02
2023-05-18T22:35:48.553Z,64.13
2023-05-18T22:38:16.917Z,64.14
2023-05-18T22:40:45.608Z,63.83
2023-05-18T22:43:12.901Z,63.84
2023-05-18T22:45:40.099Z,64.30
2023-05-18T22:48:07.292Z,64.08
2023-05-18T22:50:35.170Z,64.13
2023-05-18T22:53:02.656Z,64.15
2023-05-18T22:55:30.126Z,64.53
2023-05-18T22:57:57.473Z,64.32
2023-05-18T23:00:24.604Z,64.83
2023-05-18T23:02:53.073Z,64.78
2023-05-18T23:05:20.612Z,64.62
2023-05-18T23:07:47.795Z,64.81
2023-05-18T23:10:15.070Z,65.19
2023-05-18T23:12:42.195Z,64.75
2023-05-18T23:15:11.949Z,65.19
2023-05-18T23:17:42.825Z,65.03
2023-05-18T23:20:11.623Z,64.95
2023-05-18T23:22:38.924Z,65.26
2023-05-18T23:25:08.798Z,65.29
2023-05-18T23:27:36.839Z,65.38
2023-05-18T23:30:04.554Z,65.13
2023-05-18T23:32:36.060Z,64.99
2023-05-18T23:35:05.049Z,64.94
2023-05-18T23:37:35.302Z,65.34
2023-05-18T23:40:03.004Z,65.18
2023-05-18T23:42:33.743Z,65.44
2023-05-18T23:45:01.469Z,65.62
2023-05-18T23:47:33.987Z,65.87
2023-05-18T23:50:01.368Z,65.67
2023-05-18T23:52:32.844Z,65.64
2023-05-18T23:55:00.599Z,65.94
2023-05-18T23:57:28.112Z,65.97
2023-05-18T23:59:56.015Z,66.02
